createdAt,value
2023-04-20T00:02:24.904Z,6.28
2023-04-20T00:07:18.853Z,4.70
2023-04-20T00:12:13.292Z,5.93
2023-04-20T00:17:06.823Z,5.50
2023-04-20T00:22:01.231Z,5.55
2023-04-20T00:26:55.576Z,6.05
2023-04-20T00:31:50.260Z,6.93
2023-04-20T00:36:43.069Z,9.88
2023-04-20T00:41:36.560Z,10.65
2023-04-20T00:46:29.921Z,9.52
2023-04-20T00:51:24.433Z,10.63
2023-04-20T00:56:17.561Z,8.90
2023-04-20T01:01:12.148Z,9.10
2023-04-20T01:06:06.293Z,10.57
2023-04-20T01:11:01.828Z,10.13
2023-04-20T01:15:55.421Z,10.70
2023-04-20T01:20:49.015Z,13.15
2023-04-20T01:25:43.161Z,10.90
2023-04-20T01:30:37.182Z,11.07
2023-04-20T01:35:30.516Z,10.32
2023-04-20T01:40:23.880Z,12.05
2023-04-20T01:45:17.682Z,10.07
2023-04-20T01:50:11.027Z,11.07
2023-04-20T01:55:04.398Z,10.23
2023-04-20T01:59:57.753Z,11.07
2023-04-20T02:04:51.337Z,10.80
2023-04-20T02:09:44.118Z,9.98
2023-04-20T02:14:36.485Z,11.20
2023-04-20T02:19:30.102Z,10.85
2023-04-20T02:24:23.523Z,12.35
2023-04-20T02:29:17.234Z,11.63
2023-04-20T02:34:10.908Z,12.32
2023-04-20T02:39:04.404Z,11.20
2023-04-20T02:44:00.342Z,12.40
2023-04-20T02:48:56.354Z,12.77
2023-04-20T02:53:51.469Z,12.40
2023-04-20T02:58:55.649Z,13.75
2023-04-20T03:04:01.976Z,13.73
2023-04-20T03:08:58.173Z,14.82
2023-04-20T03:14:12.045Z,15.20
2023-04-20T03:19:05.759Z,11.93
2023-04-20T03:24:00.386Z,14.27
2023-04-20T03:28:53.890Z,13.45
2023-04-20T03:33:51.057Z,12.60
2023-04-20T03:38:44.506Z,11.75
2023-04-20T03:43:38.720Z,12.25
2023-04-20T03:48:31.872Z,12.43
2023-04-20T03:53:25.562Z,11.35
2023-04-20T03:58:18.812Z,12.68
2023-04-20T04:03:24.498Z,11.95
2023-04-20T04:08:18.368Z,10.82
2023-04-20T04:13:11.794Z,10.55
2023-04-20T04:18:07.121Z,10.93
2023-04-20T04:23:01.908Z,9.60
2023-04-20T04:28:04.702Z,12.23
2023-04-20T04:33:00.359Z,11.52
2023-04-20T04:37:54.464Z,10.85
2023-04-20T04:42:48.721Z,11.07
2023-04-20T04:47:44.560Z,9.90
2023-04-20T04:52:37.805Z,10.52
2023-04-20T04:57:31.445Z,10.65
2023-04-20T05:02:25.099Z,9.38
2023-04-20T05:07:18.522Z,10.40
2023-04-20T05:12:12.204Z,9.55
2023-04-20T05:17:06.405Z,10.23
2023-04-20T05:22:01.168Z,10.18
2023-04-20T05:26:54.112Z,9.50
2023-04-20T05:31:46.951Z,10.38
2023-04-20T05:36:42.197Z,9.68
2023-04-20T05:41:34.761Z,10.38
2023-04-20T05:46:29.802Z,10.57
2023-04-20T05:51:26.334Z,10.73
2023-04-20T05:56:20.576Z,11.00
2023-04-20T06:01:14.616Z,10.27
2023-04-20T06:06:08.926Z,12.93
2023-04-20T06:11:02.365Z,11.65
2023-04-20T06:15:58.138Z,11.45
2023-04-20T06:20:52.605Z,11.60
2023-04-20T06:25:46.999Z,12.18
2023-04-20T06:30:40.138Z,11.07
2023-04-20T06:35:33.769Z,13.65
2023-04-20T06:40:30.491Z,12.77
2023-04-20T06:45:23.753Z,14.23
2023-04-20T06:50:17.234Z,15.63
2023-04-20T06:55:10.287Z,17.90
2023-04-20T07:00:05.413Z,19.38
2023-04-20T07:05:03.137Z,17.02
2023-04-20T07:09:57.038Z,17.93
2023-04-20T07:14:50.148Z,18.73
2023-04-20T07:19:43.506Z,18.45
2023-04-20T07:24:36.894Z,19.35
2023-04-20T07:29:30.984Z,17.23
2023-04-20T07:34:25.609Z,16.95
2023-04-20T07:39:19.307Z,17.10
2023-04-20T07:44:14.720Z,17.08
2023-04-20T07:49:08.637Z,17.08
2023-04-20T07:54:02.301Z,17.75
2023-04-20T07:58:56.865Z,17.60
2023-04-20T08:03:50.719Z,18.17
2023-04-20T08:08:44.111Z,17.85
2023-04-20T08:13:37.842Z,17.65
2023-04-20T08:18:32.367Z,18.30
2023-04-20T08:23:27.982Z,17.30
2023-04-20T08:28:32.956Z,18.75
2023-04-20T08:33:28.134Z,17.30
2023-04-20T08:38:32.885Z,18.08
2023-04-20T08:43:27.028Z,14.30
2023-04-20T08:48:21.532Z,14.13
2023-04-20T08:53:14.837Z,13.82
2023-04-20T08:58:08.899Z,13.73
2023-04-20T09:03:02.624Z,13.00
2023-04-20T09:07:57.551Z,13.10
2023-04-20T09:12:50.996Z,12.82
2023-04-20T09:17:45.458Z,12.02
2023-04-20T09:22:39.296Z,12.63
2023-04-20T09:27:32.670Z,12.88
2023-04-20T09:32:26.922Z,13.32
2023-04-20T09:37:19.359Z,12.90
2023-04-20T09:42:16.056Z,11.65
2023-04-20T09:47:09.794Z,10.68
2023-04-20T09:52:07.664Z,10.90
2023-04-20T09:57:02.144Z,11.73
2023-04-20T10:01:54.533Z,12.05
2023-04-20T10:06:55.363Z,10.77
2023-04-20T10:11:53.335Z,11.60
2023-04-20T10:17:01.496Z,9.00
2023-04-20T10:21:55.348Z,9.38
2023-04-20T10:26:49.708Z,8.07
2023-04-20T10:31:43.338Z,7.80
2023-04-20T10:36:37.567Z,8.20
2023-04-20T10:41:31.273Z,8.23
2023-04-20T10:46:26.434Z,6.90
2023-04-20T10:51:20.092Z,7.07
2023-04-20T10:56:12.713Z,7.25
2023-04-20T11:01:06.665Z,8.10
2023-04-20T11:06:19.972Z,7.22
2023-04-20T11:11:46.787Z,6.82
2023-04-20T11:16:51.364Z,7.20
2023-04-20T11:21:46.450Z,6.47
2023-04-20T11:26:44.897Z,6.25
2023-04-20T11:31:38.459Z,6.40
2023-04-20T11:36:32.109Z,6.00
2023-04-20T11:41:24.782Z,6.65
2023-04-20T11:46:18.718Z,6.13
2023-04-20T11:51:12.046Z,6.97
2023-04-20T11:56:06.630Z,5.53
2023-04-20T12:01:00.288Z,6.07
2023-04-20T12:05:54.976Z,6.00
2023-04-20T12:10:48.687Z,7.82
2023-04-20T12:15:42.475Z,6.03
2023-04-20T12:20:35.995Z,7.50
2023-04-20T12:25:29.743Z,6.95
2023-04-20T12:30:24.008Z,7.00
2023-04-20T12:35:18.404Z,7.65
2023-04-20T12:40:12.892Z,8.05
2023-04-20T12:45:07.777Z,9.27
2023-04-20T12:50:01.574Z,9.27
2023-04-20T12:54:55.684Z,10.10
2023-04-20T12:59:50.087Z,11.23
2023-04-20T13:04:43.690Z,9.95
2023-04-20T13:09:37.918Z,10.65
2023-04-20T13:14:31.671Z,9.98
2023-04-20T13:19:25.863Z,10.30
2023-04-20T13:24:19.408Z,11.75
2023-04-20T13:29:13.149Z,11.23
2023-04-20T13:34:06.654Z,11.18
2023-04-20T13:38:59.806Z,10.30
2023-04-20T13:43:53.787Z,11.00
2023-04-20T13:48:47.455Z,10.63
2023-04-20T13:53:40.376Z,11.20
2023-04-20T13:58:34.662Z,11.50
2023-04-20T14:03:28.204Z,12.18
2023-04-20T14:08:23.678Z,11.32
2023-04-20T14:13:16.314Z,11.07
2023-04-20T14:18:10.791Z,9.93
2023-04-20T14:23:03.476Z,8.75
2023-04-20T14:27:56.807Z,8.88
2023-04-20T14:33:00.491Z,8.27
2023-04-20T14:37:54.525Z,8.60
2023-04-20T14:42:49.185Z,4.97
2023-04-20T14:47:43.141Z,4.47
2023-04-20T14:52:35.692Z,3.80
2023-04-20T14:57:29.729Z,2.85
2023-04-20T15:02:23.421Z,2.72
2023-04-20T15:07:18.427Z,3.20
2023-04-20T15:12:12.385Z,3.38
2023-04-20T15:17:06.724Z,3.92
2023-04-20T15:22:00.321Z,4.63
2023-04-20T15:26:54.615Z,4.22
2023-04-20T15:31:48.437Z,5.63
2023-04-20T15:36:43.757Z,6.00
2023-04-20T15:41:37.477Z,5.50
2023-04-20T15:46:30.926Z,5.60
2023-04-20T15:51:25.771Z,6.32
2023-04-20T15:56:22.923Z,6.60
2023-04-20T16:01:17.349Z,6.03
2023-04-20T16:06:10.760Z,16.23
2023-04-20T16:11:03.582Z,5.85
2023-04-20T16:15:57.824Z,7.10
2023-04-20T16:20:51.664Z,6.20
2023-04-20T16:25:45.104Z,6.80
2023-04-20T16:30:38.821Z,4.60
2023-04-20T16:35:34.083Z,5.57
2023-04-20T16:40:28.570Z,5.53
2023-04-20T16:45:22.645Z,5.63
2023-04-20T16:50:20.239Z,5.18
2023-04-20T16:55:13.280Z,5.25
2023-04-20T17:00:11.305Z,6.38
2023-04-20T17:05:06.044Z,7.55
2023-04-20T17:09:59.609Z,6.65
2023-04-20T17:14:52.623Z,7.82
2023-04-20T17:19:46.549Z,8.23
2023-04-20T17:24:39.570Z,8.60
2023-04-20T17:29:36.959Z,10.27
2023-04-20T17:34:30.738Z,10.73
2023-04-20T17:39:25.791Z,12.48
2023-04-20T17:44:19.032Z,12.98
2023-04-20T17:49:12.091Z,11.60
2023-04-20T17:54:07.212Z,11.07
2023-04-20T17:59:01.046Z,11.27
2023-04-20T18:03:54.287Z,10.30
2023-04-20T18:08:48.285Z,11.73
2023-04-20T18:13:42.386Z,10.43
2023-04-20T18:18:35.967Z,10.32
2023-04-20T18:23:30.068Z,12.05
2023-04-20T18:28:23.973Z,10.70
2023-04-20T18:33:17.306Z,11.18
2023-04-20T18:38:11.263Z,10.43
2023-04-20T18:43:05.105Z,13.30
2023-04-20T18:47:59.530Z,11.82
2023-04-20T18:52:52.822Z,12.45
2023-04-20T18:57:46.480Z,12.10
2023-04-20T19:02:40.728Z,10.75
2023-04-20T19:07:34.177Z,11.93
2023-04-20T19:12:28.763Z,12.05
2023-04-20T19:17:22.899Z,11.57
2023-04-20T19:22:15.445Z,11.80
2023-04-20T19:27:09.588Z,11.23
2023-04-20T19:32:03.028Z,10.82
2023-04-20T19:36:57.250Z,11.48
2023-04-20T19:41:50.545Z,11.63
2023-04-20T19:46:44.072Z,12.38
2023-04-20T19:51:38.161Z,12.32
2023-04-20T19:56:32.146Z,12.50
2023-04-20T20:01:26.163Z,11.95
2023-04-20T20:06:19.475Z,12.25
2023-04-20T20:11:12.183Z,13.15
2023-04-20T20:16:06.169Z,13.07
2023-04-20T20:21:00.338Z,13.95
2023-04-20T20:25:54.212Z,13.05
2023-04-20T20:30:47.836Z,13.95
2023-04-20T20:35:42.157Z,13.00
2023-04-20T20:40:36.204Z,13.75
2023-04-20T20:45:29.392Z,13.13
2023-04-20T20:50:22.965Z,11.82
2023-04-20T20:55:18.116Z,12.35
2023-04-20T21:00:13.931Z,13.15
2023-04-20T21:05:08.064Z,12.05
2023-04-20T21:10:01.750Z,13.80
2023-04-20T21:14:55.187Z,12.77
2023-04-20T21:19:48.739Z,13.23
2023-04-20T21:24:42.340Z,14.13
2023-04-20T21:29:36.030Z,14.13
2023-04-20T21:34:29.458Z,14.95
2023-04-20T21:39:23.461Z,15.70
2023-04-20T21:44:17.537Z,14.55
2023-04-20T21:49:10.759Z,14.63
2023-04-20T21:54:05.209Z,15.30
2023-04-20T21:58:58.596Z,16.48
2023-04-20T22:03:52.159Z,16.02
2023-04-20T22:08:44.996Z,13.80
2023-04-20T22:13:38.973Z,15.38
2023-04-20T22:18:32.565Z,14.88
2023-04-20T22:23:26.208Z,13.88
2023-04-20T22:28:18.883Z,13.20
2023-04-20T22:33:12.431Z,15.10
2023-04-20T22:38:06.358Z,15.05
2023-04-20T22:42:59.641Z,14.40
2023-04-20T22:47:53.336Z,15.23
2023-04-20T22:52:47.493Z,15.10
2023-04-20T22:57:41.354Z,14.90
2023-04-20T23:02:34.780Z,15.30
2023-04-20T23:07:27.979Z,16.42
2023-04-20T23:12:21.369Z,15.32
2023-04-20T23:17:13.855Z,16.50
2023-04-20T23:22:09.085Z,16.60
2023-04-20T23:27:01.967Z,15.55
2023-04-20T23:31:55.134Z,16.60
2023-04-20T23:36:49.031Z,17.40
2023-04-20T23:41:47.285Z,15.82
2023-04-20T23:46:40.669Z,15.27
2023-04-20T23:51:33.541Z,16.77
2023-04-20T23:56:27.130Z,17.17
